createdAt,value
2023-01-02T00:01:24.340Z,13.73
2023-01-02T00:03:51.271Z,13.77
2023-01-02T00:06:18.270Z,13.75
2023-01-02T00:08:45.085Z,13.76
2023-01-02T00:11:11.890Z,13.75
2023-01-02T00:13:38.862Z,13.75
2023-01-02T00:16:06.338Z,13.71
2023-01-02T00:18:33.236Z,13.72
2023-01-02T00:21:07.101Z,13.73
2023-01-02T00:23:34.206Z,13.72
2023-01-02T00:26:01.483Z,13.73
2023-01-02T00:28:28.759Z,13.75
2023-01-02T00:30:55.729Z,13.78
2023-01-02T00:33:23.147Z,13.81
2023-01-02T00:35:50.000Z,13.81
2023-01-02T00:38:18.466Z,13.81
2023-01-02T00:40:45.345Z,13.82
2023-01-02T00:43:12.153Z,13.82
2023-01-02T00:45:38.977Z,13.83
2023-01-02T00:48:05.801Z,13.81
2023-01-02T00:50:32.642Z,13.80
2023-01-02T00:52:59.447Z,13.80
2023-01-02T00:55:26.268Z,13.80
2023-01-02T00:57:53.156Z,13.83
2023-01-02T01:00:23.850Z,13.80
2023-01-02T01:02:56.052Z,13.80
2023-01-02T01:05:24.439Z,13.77
2023-01-02T01:07:51.697Z,13.81
2023-01-02T01:10:18.507Z,13.75
2023-01-02T01:12:45.306Z,13.75
2023-01-02T01:15:12.155Z,13.74
2023-01-02T01:17:39.289Z,13.73
2023-01-02T01:20:07.540Z,13.72
2023-01-02T01:22:34.532Z,13.74
2023-01-02T01:25:01.390Z,13.75
2023-01-02T01:27:28.201Z,13.78
2023-01-02T01:29:55.038Z,13.79
2023-01-02T01:32:21.850Z,13.82
2023-01-02T01:34:48.645Z,13.78
2023-01-02T01:37:15.456Z,13.75
2023-01-02T01:39:42.283Z,13.71
2023-01-02T01:42:13.642Z,13.69
2023-01-02T01:44:51.872Z,13.68
2023-01-02T01:47:57.125Z,13.63
2023-01-02T01:50:33.643Z,13.63
2023-01-02T01:53:16.491Z,13.64
2023-01-02T01:56:00.656Z,13.61
2023-01-02T01:58:35.225Z,13.63
2023-01-02T02:01:03.294Z,13.64
2023-01-02T02:03:32.624Z,13.64
2023-01-02T02:06:00.875Z,13.64
2023-01-02T02:08:55.718Z,13.64
2023-01-02T02:11:23.332Z,13.67
2023-01-02T02:13:50.722Z,13.67
2023-01-02T02:16:17.479Z,13.67
2023-01-02T02:18:56.260Z,13.70
2023-01-02T02:22:19.052Z,13.76
2023-01-02T02:25:13.641Z,13.80
2023-01-02T02:28:21.608Z,13.83
2023-01-02T02:31:09.316Z,13.86
2023-01-02T02:33:58.788Z,13.83
2023-01-02T02:36:58.024Z,13.84
2023-01-02T02:39:34.545Z,13.79
2023-01-02T02:42:32.177Z,13.81
2023-01-02T02:45:29.696Z,13.80
2023-01-02T02:48:23.042Z,13.82
2023-01-02T02:51:04.491Z,13.81
2023-01-02T02:53:42.806Z,13.83
2023-01-02T02:56:12.457Z,13.85
2023-01-02T02:58:41.573Z,13.86
2023-01-02T03:01:15.763Z,13.88
2023-01-02T03:03:43.197Z,13.86
2023-01-02T03:06:19.271Z,13.83
2023-01-02T03:09:13.084Z,13.80
2023-01-02T03:12:19.486Z,13.83
2023-01-02T03:14:57.615Z,13.82
2023-01-02T03:17:37.353Z,13.79
2023-01-02T03:20:16.025Z,13.79
2023-01-02T03:22:50.620Z,13.78
2023-01-02T03:25:18.786Z,13.77
2023-01-02T03:27:48.334Z,13.78
2023-01-02T03:30:21.861Z,13.80
2023-01-02T03:33:03.904Z,13.80
2023-01-02T03:35:41.830Z,13.72
2023-01-02T03:38:15.427Z,13.75
2023-01-02T03:40:49.164Z,13.70
2023-01-02T03:43:22.531Z,13.73
2023-01-02T03:46:01.184Z,13.70
2023-01-02T03:48:48.360Z,13.73
2023-01-02T03:51:15.231Z,13.76
2023-01-02T03:53:42.202Z,13.72
2023-01-02T03:56:40.912Z,13.67
2023-01-02T03:59:59.013Z,13.64
2023-01-02T04:03:04.782Z,13.62
2023-01-02T04:05:48.980Z,13.60
2023-01-02T04:08:33.504Z,13.55
2023-01-02T04:11:02.336Z,13.55
2023-01-02T04:13:49.009Z,13.56
2023-01-02T04:16:22.372Z,13.56
2023-01-02T04:18:56.073Z,13.57
2023-01-02T04:21:29.469Z,13.52
2023-01-02T04:24:10.894Z,13.43
2023-01-02T04:26:49.908Z,13.38
2023-01-02T04:29:16.960Z,13.34
2023-01-02T04:32:01.607Z,13.28
2023-01-02T04:34:32.440Z,13.22
2023-01-02T04:36:59.644Z,13.16
2023-01-02T04:39:28.921Z,13.12
2023-01-02T04:41:55.876Z,13.10
2023-01-02T04:44:22.770Z,13.05
2023-01-02T04:46:49.618Z,13.06
2023-01-02T04:49:16.434Z,13.05
2023-01-02T04:51:43.356Z,13.02
2023-01-02T04:54:12.162Z,13.03
2023-01-02T04:56:39.329Z,13.05
2023-01-02T04:59:06.252Z,13.05
2023-01-02T05:01:33.185Z,13.06
2023-01-02T05:04:00.061Z,13.05
2023-01-02T05:06:26.938Z,13.09
2023-01-02T05:08:53.831Z,13.10
2023-01-02T05:11:21.392Z,13.10
2023-01-02T05:13:48.313Z,13.08
2023-01-02T05:16:15.358Z,13.09
2023-01-02T05:18:42.313Z,13.08
2023-01-02T05:21:32.589Z,13.05
2023-01-02T05:24:02.468Z,13.02
2023-01-02T05:26:33.639Z,13.04
2023-01-02T05:29:01.271Z,13.08
2023-01-02T05:31:28.973Z,13.05
2023-01-02T05:33:58.351Z,13.02
2023-01-02T05:36:26.548Z,13.05
2023-01-02T05:38:53.757Z,13.05
2023-01-02T05:41:23.707Z,13.04
2023-01-02T05:43:50.528Z,13.04
2023-01-02T05:46:20.377Z,13.00
2023-01-02T05:48:47.310Z,12.97
2023-01-02T05:51:17.030Z,12.96
2023-01-02T05:53:44.350Z,12.96
2023-01-02T05:56:17.447Z,12.89
2023-01-02T05:58:47.801Z,12.88
2023-01-02T06:01:17.652Z,12.89
2023-01-02T06:03:53.922Z,12.91
2023-01-02T06:06:27.152Z,12.91
2023-01-02T06:08:53.973Z,12.89
2023-01-02T06:11:20.895Z,12.89
2023-01-02T06:13:47.827Z,12.85
2023-01-02T06:16:14.787Z,12.78
2023-01-02T06:18:41.875Z,12.73
2023-01-02T06:21:12.467Z,12.72
2023-01-02T06:23:40.213Z,12.72
2023-01-02T06:26:19.601Z,12.76
2023-01-02T06:28:50.069Z,12.81
2023-01-02T06:31:18.718Z,12.85
2023-01-02T06:33:45.867Z,12.88
2023-01-02T06:36:16.997Z,12.91
2023-01-02T06:38:45.547Z,12.92
2023-01-02T06:41:13.987Z,12.96
2023-01-02T06:43:49.800Z,12.95
2023-01-02T06:46:19.298Z,12.92
2023-01-02T06:48:47.001Z,12.91
2023-01-02T06:51:23.943Z,12.88
2023-01-02T06:53:51.323Z,12.82
2023-01-02T06:56:19.941Z,12.81
2023-01-02T06:58:47.070Z,12.79
2023-01-02T07:01:20.543Z,12.79
2023-01-02T07:03:48.340Z,12.80
2023-01-02T07:06:19.095Z,12.80
2023-01-02T07:08:46.901Z,12.80
2023-01-02T07:11:22.782Z,12.76
2023-01-02T07:13:52.712Z,12.77
2023-01-02T07:16:22.150Z,12.80
2023-01-02T07:18:49.692Z,12.80
2023-01-02T07:21:18.196Z,12.82
2023-01-02T07:23:45.166Z,12.80
2023-01-02T07:26:12.920Z,12.79
2023-01-02T07:28:40.306Z,12.79
2023-01-02T07:31:12.379Z,12.79
2023-01-02T07:33:39.190Z,12.82
2023-01-02T07:36:11.392Z,12.86
2023-01-02T07:38:39.200Z,12.90
2023-01-02T07:41:17.166Z,13.02
2023-01-02T07:43:46.242Z,13.17
2023-01-02T07:46:16.895Z,13.29
2023-01-02T07:48:44.954Z,13.41
2023-01-02T07:51:12.662Z,13.49
2023-01-02T07:53:41.383Z,13.59
2023-01-02T07:56:08.949Z,13.67
2023-01-02T07:58:36.551Z,13.72
2023-01-02T08:01:13.040Z,13.80
2023-01-02T08:03:40.235Z,13.85
2023-01-02T08:06:19.132Z,13.92
2023-01-02T08:08:46.661Z,13.97
2023-01-02T08:11:19.682Z,14.01
2023-01-02T08:13:46.797Z,14.05
2023-01-02T08:16:17.687Z,14.07
2023-01-02T08:18:46.638Z,14.12
2023-01-02T08:21:14.427Z,14.18
2023-01-02T08:23:41.277Z,14.18
2023-01-02T08:26:10.573Z,14.20
2023-01-02T08:28:39.681Z,14.19
2023-01-02T08:31:18.769Z,14.21
2023-01-02T08:33:46.487Z,14.21
2023-01-02T08:36:14.525Z,14.15
2023-01-02T08:38:42.071Z,14.13
2023-01-02T08:41:09.139Z,14.11
2023-01-02T08:43:36.589Z,14.14
2023-01-02T08:46:08.372Z,14.15
2023-01-02T08:48:36.265Z,14.15
2023-01-02T08:51:04.007Z,14.21
2023-01-02T08:53:30.842Z,14.27
2023-01-02T08:56:28.097Z,14.32
2023-01-02T08:59:07.439Z,14.40
2023-01-02T09:01:35.035Z,14.40
2023-01-02T09:04:09.372Z,14.43
2023-01-02T09:06:38.875Z,14.47
2023-01-02T09:09:11.592Z,14.50
2023-01-02T09:11:51.278Z,14.52
2023-01-02T09:14:20.526Z,14.57
2023-01-02T09:16:48.932Z,14.62
2023-01-02T09:19:15.981Z,14.66
2023-01-02T09:21:42.850Z,14.69
2023-01-02T09:24:10.160Z,14.75
2023-01-02T09:26:38.138Z,14.85
2023-01-02T09:29:05.234Z,14.91
2023-01-02T09:31:32.206Z,14.98
2023-01-02T09:33:59.196Z,15.09
2023-01-02T09:36:26.075Z,15.14
2023-01-02T09:38:58.667Z,15.24
2023-01-02T09:41:36.119Z,15.25
2023-01-02T09:44:18.805Z,15.35
2023-01-02T09:47:05.901Z,15.40
2023-01-02T09:49:50.424Z,15.56
2023-01-02T09:52:22.832Z,15.71
2023-01-02T09:54:49.741Z,15.90
2023-01-02T09:57:29.569Z,16.13
2023-01-02T10:00:18.994Z,16.44
2023-01-02T10:03:11.372Z,16.74
2023-01-02T10:05:41.156Z,17.00
2023-01-02T10:08:41.200Z,17.14
2023-01-02T10:11:36.086Z,17.27
2023-01-02T10:14:44.530Z,17.39
2023-01-02T10:17:15.338Z,17.40
2023-01-02T10:19:49.848Z,17.33
2023-01-02T10:22:22.858Z,17.24
2023-01-02T10:25:01.611Z,17.17
2023-01-02T10:27:38.098Z,17.14
2023-01-02T10:30:20.236Z,17.19
2023-01-02T10:33:04.811Z,17.18
2023-01-02T10:35:39.365Z,17.23
2023-01-02T10:38:06.595Z,17.21
2023-01-02T10:40:34.015Z,17.18
2023-01-02T10:43:01.480Z,17.08
2023-01-02T10:45:29.136Z,17.06
2023-01-02T10:47:55.989Z,16.97
2023-01-02T10:50:29.422Z,16.89
2023-01-02T10:53:20.224Z,16.78
2023-01-02T10:55:47.285Z,16.72
2023-01-02T10:58:23.800Z,16.62
2023-01-02T11:01:21.393Z,16.58
2023-01-02T11:04:09.826Z,16.48
2023-01-02T11:07:00.779Z,16.35
2023-01-02T11:09:35.808Z,16.30
2023-01-02T11:12:14.063Z,16.28
2023-01-02T11:14:41.133Z,16.29
2023-01-02T11:17:16.991Z,16.23
2023-01-02T11:19:52.092Z,16.20
2023-01-02T11:22:36.158Z,16.19
2023-01-02T11:25:22.460Z,16.18
2023-01-02T11:27:49.911Z,16.19
2023-01-02T11:30:32.731Z,16.16
2023-01-02T11:33:15.708Z,16.15
2023-01-02T11:35:53.115Z,16.15
2023-01-02T11:38:30.644Z,16.12
2023-01-02T11:41:02.704Z,16.10
2023-01-02T11:43:48.550Z,16.11
2023-01-02T11:46:37.197Z,16.12
2023-01-02T11:49:20.897Z,16.12
2023-01-02T11:51:59.666Z,16.10
2023-01-02T11:54:41.873Z,16.07
2023-01-02T11:57:36.204Z,16.03
2023-01-02T12:00:14.041Z,16.00
2023-01-02T12:02:48.071Z,15.95
2023-01-02T12:05:34.949Z,15.91
2023-01-02T12:08:51.036Z,15.87
2023-01-02T12:11:27.128Z,15.84
2023-01-02T12:14:21.637Z,15.69
2023-01-02T12:17:19.069Z,15.64
2023-01-02T12:20:06.941Z,15.58
2023-01-02T12:22:55.141Z,15.53
2023-01-02T12:25:35.174Z,15.48
2023-01-02T12:28:43.605Z,15.46
2023-01-02T12:31:22.341Z,15.41
2023-01-02T12:34:28.485Z,15.39
2023-01-02T12:37:23.218Z,15.38
2023-01-02T12:40:11.397Z,15.36
2023-01-02T12:42:43.941Z,15.31
2023-01-02T12:45:50.292Z,15.25
2023-01-02T12:48:31.930Z,15.22
2023-01-02T12:51:11.229Z,15.21
2023-01-02T12:53:44.995Z,15.19
2023-01-02T12:57:21.889Z,15.17
2023-01-02T13:00:32.638Z,15.13
2023-01-02T13:03:41.100Z,15.08
2023-01-02T13:06:50.290Z,15.06
2023-01-02T13:09:35.115Z,15.05
2023-01-02T13:12:10.661Z,15.07
2023-01-02T13:15:13.195Z,15.09
2023-01-02T13:18:03.654Z,15.09
2023-01-02T13:20:57.581Z,15.14
2023-01-02T13:23:35.959Z,15.19
2023-01-02T13:26:19.438Z,15.19
2023-01-02T13:28:56.618Z,15.20
2023-01-02T13:34:24.656Z,15.13
2023-01-02T13:37:01.031Z,15.10
2023-01-02T13:39:51.109Z,15.07
2023-01-02T13:42:50.503Z,15.06
2023-01-02T13:45:24.778Z,15.09
2023-01-02T13:47:55.958Z,15.07
2023-01-02T13:50:28.036Z,15.06
2023-01-02T13:53:09.945Z,15.08
2023-01-02T13:55:40.628Z,15.05
2023-01-02T13:58:17.598Z,15.01
2023-01-02T14:01:00.124Z,15.01
2023-01-02T14:03:32.497Z,15.02
2023-01-02T14:06:20.762Z,15.01
2023-01-02T14:09:05.940Z,14.98
2023-01-02T14:11:56.388Z,15.01
2023-01-02T14:14:42.665Z,14.99
2023-01-02T14:17:35.499Z,15.00
2023-01-02T14:20:28.798Z,14.96
2023-01-02T14:23:02.842Z,14.93
2023-01-02T14:25:32.051Z,14.91
2023-01-02T14:28:05.721Z,14.92
2023-01-02T14:30:36.663Z,14.92
2023-01-02T14:33:06.921Z,14.91
2023-01-02T14:35:41.802Z,14.90
2023-01-02T14:38:17.183Z,14.88
2023-01-02T14:40:46.057Z,14.91
2023-01-02T14:43:32.410Z,14.92
2023-01-02T14:46:07.823Z,14.97
2023-01-02T14:48:59.273Z,14.99
2023-01-02T14:51:50.724Z,15.02
2023-01-02T14:54:39.984Z,15.01
2023-01-02T14:57:30.192Z,14.93
2023-01-02T15:00:02.182Z,14.87
2023-01-02T15:02:40.278Z,14.82
2023-01-02T15:05:18.030Z,14.81
2023-01-02T15:07:50.356Z,14.77
2023-01-02T15:10:20.142Z,14.74
2023-01-02T15:13:11.057Z,14.72
2023-01-02T15:15:48.430Z,14.71
2023-01-02T15:18:23.951Z,14.73
2023-01-02T15:20:53.691Z,14.70
2023-01-02T15:23:23.888Z,14.70
2023-01-02T15:25:51.820Z,14.68
2023-01-02T15:28:38.607Z,14.66
2023-01-02T15:31:14.528Z,14.67
2023-01-02T15:33:41.936Z,14.64
2023-01-02T15:36:14.795Z,14.66
2023-01-02T15:38:42.828Z,14.68
2023-01-02T15:41:19.012Z,14.67
2023-01-02T15:44:05.863Z,14.65
2023-01-02T15:46:32.977Z,14.65
2023-01-02T15:49:02.811Z,14.66
2023-01-02T15:51:40.561Z,14.65
2023-01-02T15:54:14.332Z,14.64
2023-01-02T15:56:41.994Z,14.56
2023-01-02T15:59:41.186Z,14.38
2023-01-02T16:02:31.164Z,14.26
2023-01-02T16:05:17.751Z,13.95
2023-01-02T16:07:54.706Z,13.82
2023-01-02T16:10:29.447Z,13.67
2023-01-02T16:13:01.053Z,13.59
2023-01-02T16:15:32.348Z,13.52
2023-01-02T16:17:59.203Z,13.46
2023-01-02T16:20:27.708Z,13.36
2023-01-02T16:23:06.041Z,13.32
2023-01-02T16:25:43.477Z,13.26
2023-01-02T16:28:35.033Z,13.16
2023-01-02T16:31:23.196Z,13.08
2023-01-02T16:33:50.288Z,13.06
2023-01-02T16:36:24.718Z,13.02
2023-01-02T16:39:00.346Z,12.99
2023-01-02T16:41:40.899Z,12.95
2023-01-02T16:44:16.362Z,12.96
2023-01-02T16:46:50.629Z,12.97
2023-01-02T16:49:22.986Z,12.97
2023-01-02T16:51:54.529Z,12.95
2023-01-02T16:54:21.603Z,12.94
2023-01-02T16:56:49.965Z,12.93
2023-01-02T16:59:16.866Z,12.93
2023-01-02T17:01:43.957Z,12.92
2023-01-02T17:04:14.048Z,12.87
2023-01-02T17:06:40.885Z,12.82
2023-01-02T17:09:07.706Z,12.76
2023-01-02T17:11:34.614Z,12.77
2023-01-02T17:14:01.786Z,12.81
2023-01-02T17:16:28.713Z,12.80
2023-01-02T17:18:55.633Z,12.77
2023-01-02T17:21:25.174Z,12.75
2023-01-02T17:23:56.105Z,12.67
2023-01-02T17:26:23.060Z,12.60
2023-01-02T17:28:49.883Z,12.59
2023-01-02T17:31:21.154Z,12.57
2023-01-02T17:33:49.425Z,12.61
2023-01-02T17:36:16.385Z,12.59
2023-01-02T17:38:43.292Z,12.50
2023-01-02T17:41:10.198Z,12.52
2023-01-02T17:43:37.032Z,12.49
2023-01-02T17:46:38.711Z,12.48
2023-01-02T17:48:55.242Z,12.44
2023-01-02T17:51:22.043Z,12.44
2023-01-02T17:53:52.880Z,12.46
2023-01-02T17:56:20.437Z,12.45
2023-01-02T17:58:49.343Z,12.46
2023-01-02T18:01:19.335Z,12.43
2023-01-02T18:03:46.534Z,12.40
2023-01-02T18:06:13.580Z,12.44
2023-01-02T18:08:40.991Z,12.41
2023-01-02T18:11:11.323Z,12.44
2023-01-02T18:13:50.024Z,12.48
2023-01-02T18:16:27.061Z,12.48
2023-01-02T18:18:54.037Z,12.48
2023-01-02T18:21:24.205Z,12.45
2023-01-02T18:23:57.446Z,12.39
2023-01-02T18:26:26.275Z,12.35
2023-01-02T18:29:07.471Z,12.33
2023-01-02T18:31:43.321Z,12.30
2023-01-02T18:34:48.931Z,12.25
2023-01-02T18:37:26.056Z,12.21
2023-01-02T18:39:54.838Z,12.17
2023-01-02T18:42:29.770Z,12.16
2023-01-02T18:44:59.931Z,12.19
2023-01-02T18:47:30.544Z,12.14
2023-01-02T18:50:23.758Z,12.10
2023-01-02T18:52:52.063Z,12.13
2023-01-02T18:55:29.097Z,12.09
2023-01-02T18:58:01.413Z,12.08
2023-01-02T19:00:32.936Z,12.09
2023-01-02T19:03:08.956Z,12.02
2023-01-02T19:05:39.909Z,11.99
2023-01-02T19:08:12.679Z,12.00
2023-01-02T19:10:53.217Z,11.99
2023-01-02T19:13:46.345Z,11.96
2023-01-02T19:16:19.338Z,11.88
2023-01-02T19:18:49.330Z,11.85
2023-01-02T19:21:24.544Z,11.82
2023-01-02T19:23:59.463Z,11.78
2023-01-02T19:26:33.104Z,11.77
2023-01-02T19:29:10.047Z,11.75
2023-01-02T19:31:47.439Z,11.68
2023-01-02T19:34:41.696Z,11.64
2023-01-02T19:37:11.497Z,11.60
2023-01-02T19:39:59.952Z,11.54
2023-01-02T19:42:30.836Z,11.50
2023-01-02T19:45:02.899Z,11.46
2023-01-02T19:47:33.498Z,11.45
2023-01-02T19:50:01.552Z,11.41
2023-01-02T19:52:29.678Z,11.40
2023-01-02T19:54:57.700Z,11.35
2023-01-02T19:57:25.207Z,11.28
2023-01-02T19:59:55.613Z,11.23
2023-01-02T20:02:24.002Z,11.20
2023-01-02T20:04:53.588Z,11.25
2023-01-02T20:07:25.238Z,11.30
2023-01-02T20:09:52.820Z,11.33
2023-01-02T20:12:29.991Z,11.34
2023-01-02T20:14:58.565Z,11.34
2023-01-02T20:17:25.737Z,11.37
2023-01-02T20:19:52.597Z,11.36
2023-01-02T20:22:19.427Z,11.39
2023-01-02T20:24:46.964Z,11.36
2023-01-02T20:27:15.260Z,11.38
2023-01-02T20:29:43.142Z,11.28
2023-01-02T20:32:10.454Z,11.31
2023-01-02T20:34:37.455Z,11.29
2023-01-02T20:37:04.990Z,11.35
2023-01-02T20:39:32.019Z,11.41
2023-01-02T20:41:59.362Z,11.45
2023-01-02T20:44:26.286Z,11.52
2023-01-02T20:46:55.189Z,11.55
2023-01-02T20:49:25.263Z,11.58
2023-01-02T20:51:56.014Z,11.61
2023-01-02T20:54:24.774Z,11.63
2023-01-02T20:56:52.928Z,11.64
2023-01-02T20:59:21.025Z,11.68
2023-01-02T21:01:48.147Z,11.71
2023-01-02T21:04:20.454Z,11.75
2023-01-02T21:06:55.366Z,11.74
2023-01-02T21:09:22.271Z,11.74
2023-01-02T21:11:49.216Z,11.77
2023-01-02T21:14:16.095Z,11.78
2023-01-02T21:16:43.285Z,11.75
2023-01-02T21:19:10.167Z,11.68
2023-01-02T21:21:37.161Z,11.63
2023-01-02T21:24:04.203Z,11.60
2023-01-02T21:26:31.120Z,11.54
2023-01-02T21:28:57.967Z,11.46
2023-01-02T21:31:27.260Z,11.42
2023-01-02T21:33:54.220Z,11.39
2023-01-02T21:36:21.088Z,11.35
2023-01-02T21:38:47.928Z,11.36
2023-01-02T21:41:33.195Z,11.41
2023-01-02T21:44:00.025Z,11.42
2023-01-02T21:46:26.933Z,11.41
2023-01-02T21:48:53.841Z,11.40
2023-01-02T21:51:20.828Z,11.39
2023-01-02T21:53:47.691Z,11.34
2023-01-02T21:56:14.536Z,11.33
2023-01-02T21:58:41.448Z,11.32
2023-01-02T22:01:08.323Z,11.33
2023-01-02T22:03:35.503Z,11.33
2023-01-02T22:06:02.419Z,11.35
2023-01-02T22:08:29.351Z,11.37
2023-01-02T22:11:16.155Z,11.38
2023-01-02T22:13:43.054Z,11.39
2023-01-02T22:16:10.148Z,11.39
2023-01-02T22:18:38.452Z,11.31
2023-01-02T22:21:05.427Z,11.25
2023-01-02T22:23:33.174Z,11.17
2023-01-02T22:26:00.160Z,10.99
2023-01-02T22:28:27.163Z,10.84
2023-01-02T22:30:54.117Z,10.74
2023-01-02T22:33:21.031Z,10.67
2023-01-02T22:35:48.488Z,10.65
2023-01-02T22:38:15.403Z,10.63
2023-01-02T22:40:42.278Z,10.63
2023-01-02T22:43:15.651Z,10.65
2023-01-02T22:45:51.173Z,10.66
2023-01-02T22:48:24.316Z,10.67
2023-01-02T22:50:55.232Z,10.62
2023-01-02T22:53:32.742Z,10.60
2023-01-02T22:56:02.222Z,10.59
2023-01-02T22:58:29.278Z,10.57
2023-01-02T23:01:01.578Z,10.57
2023-01-02T23:03:38.707Z,10.59
2023-01-02T23:06:05.809Z,10.62
2023-01-02T23:08:32.798Z,10.60
2023-01-02T23:10:59.980Z,10.62
2023-01-02T23:13:27.339Z,10.63
2023-01-02T23:16:13.426Z,10.67
2023-01-02T23:18:58.637Z,10.70
2023-01-02T23:21:27.725Z,10.75
2023-01-02T23:23:55.171Z,10.73
2023-01-02T23:26:25.462Z,10.69
2023-01-02T23:29:08.629Z,10.74
2023-01-02T23:31:43.574Z,10.78
2023-01-02T23:34:13.914Z,10.81
2023-01-02T23:36:42.045Z,10.82
2023-01-02T23:39:16.580Z,10.85
2023-01-02T23:41:44.569Z,10.85
2023-01-02T23:44:13.258Z,10.87
2023-01-02T23:46:41.602Z,10.84
2023-01-02T23:49:10.223Z,10.83
2023-01-02T23:51:38.241Z,10.80
2023-01-02T23:54:06.300Z,10.76
2023-01-02T23:56:37.313Z,10.77
2023-01-02T23:59:11.497Z,10.75
